createdAt,value
2023-04-24T00:02:08.193Z,0.20
2023-04-24T00:04:35.419Z,0.30
2023-04-24T00:07:04.805Z,0.20
2023-04-24T00:09:31.770Z,0.30
2023-04-24T00:11:58.947Z,0.20
2023-04-24T00:14:25.875Z,0.30
2023-04-24T00:16:53.083Z,0.20
2023-04-24T00:19:22.383Z,0.25
2023-04-24T00:21:52.427Z,0.28
2023-04-24T00:24:19.560Z,0.30
2023-04-24T00:26:46.560Z,0.30
2023-04-24T00:29:14.009Z,0.20
2023-04-24T00:31:41.433Z,0.20
2023-04-24T00:34:08.832Z,0.20
2023-04-24T00:36:39.013Z,0.20
2023-04-24T00:39:06.087Z,0.20
2023-04-24T00:41:33.479Z,0.20
2023-04-24T00:44:00.389Z,0.30
2023-04-24T00:46:27.614Z,0.30
2023-04-24T00:48:54.611Z,0.20
2023-04-24T00:51:22.181Z,0.30
2023-04-24T00:53:49.257Z,0.30
2023-04-24T00:56:16.577Z,0.20
2023-04-24T00:58:44.794Z,0.17
2023-04-24T01:01:12.836Z,0.30
2023-04-24T01:03:41.676Z,0.20
2023-04-24T01:06:10.400Z,0.20
2023-04-24T01:08:39.122Z,0.20
2023-04-24T01:11:07.129Z,0.20
2023-04-24T01:13:35.835Z,0.22
2023-04-24T01:16:03.633Z,0.30
2023-04-24T01:18:31.039Z,0.30
2023-04-24T01:21:05.571Z,0.30
2023-04-24T01:23:35.970Z,0.20
2023-04-24T01:26:03.242Z,0.30
2023-04-24T01:28:30.492Z,0.30
2023-04-24T01:31:00.900Z,0.20
2023-04-24T01:33:28.186Z,0.30
2023-04-24T01:35:55.855Z,0.30
2023-04-24T01:38:23.417Z,0.30
2023-04-24T01:40:52.145Z,0.20
2023-04-24T01:43:19.984Z,0.20
2023-04-24T01:45:46.967Z,0.10
2023-04-24T01:48:14.478Z,0.30
2023-04-24T01:50:41.890Z,0.20
2023-04-24T01:53:08.847Z,0.20
2023-04-24T01:55:36.500Z,0.20
2023-04-24T01:58:03.940Z,0.20
2023-04-24T02:00:34.017Z,0.30
2023-04-24T02:03:02.952Z,0.20
2023-04-24T02:05:30.449Z,0.30
2023-04-24T02:07:57.791Z,0.20
2023-04-24T02:10:26.292Z,0.20
2023-04-24T02:12:53.244Z,0.25
2023-04-24T02:15:20.233Z,0.20
2023-04-24T02:17:47.207Z,0.20
2023-04-24T02:20:14.703Z,0.30
2023-04-24T02:22:41.628Z,0.20
2023-04-24T02:25:09.375Z,0.30
2023-04-24T02:27:36.336Z,0.30
2023-04-24T02:30:04.131Z,0.30
2023-04-24T02:32:31.877Z,0.20
2023-04-24T02:34:58.941Z,0.30
2023-04-24T02:37:25.958Z,0.30
2023-04-24T02:39:55.874Z,0.22
2023-04-24T02:42:22.778Z,0.30
2023-04-24T02:44:49.868Z,0.30
2023-04-24T02:47:16.754Z,0.32
2023-04-24T02:49:44.031Z,0.30
2023-04-24T02:52:14.194Z,0.20
2023-04-24T02:54:41.343Z,0.30
2023-04-24T02:57:12.004Z,0.20
2023-04-24T02:59:39.022Z,0.47
2023-04-24T03:02:06.803Z,0.28
2023-04-24T03:04:36.327Z,0.30
2023-04-24T03:07:03.729Z,0.40
2023-04-24T03:09:30.740Z,0.30
2023-04-24T03:11:59.389Z,0.38
2023-04-24T03:14:26.378Z,0.28
2023-04-24T03:16:53.338Z,0.30
2023-04-24T03:19:20.352Z,0.22
2023-04-24T03:21:47.549Z,0.30
2023-04-24T03:24:14.530Z,0.38
2023-04-24T03:26:41.832Z,0.30
2023-04-24T03:29:08.906Z,0.30
2023-04-24T03:31:35.857Z,0.20
2023-04-24T03:34:03.132Z,0.77
2023-04-24T03:36:30.033Z,0.30
2023-04-24T03:38:56.967Z,0.35
2023-04-24T03:41:24.115Z,0.30
2023-04-24T03:43:51.091Z,0.30
2023-04-24T03:46:18.023Z,1.45
2023-04-24T03:48:45.475Z,0.30
2023-04-24T03:51:12.686Z,0.30
2023-04-24T03:53:39.675Z,0.40
2023-04-24T03:56:06.783Z,0.30
2023-04-24T03:58:33.722Z,0.30
2023-04-24T04:01:04.091Z,0.30
2023-04-24T04:03:31.179Z,0.20
2023-04-24T04:05:58.437Z,0.30
2023-04-24T04:08:28.335Z,0.30
2023-04-24T04:10:56.004Z,0.40
2023-04-24T04:13:22.910Z,0.40
2023-04-24T04:15:50.102Z,0.40
2023-04-24T04:18:17.309Z,0.30
2023-04-24T04:20:44.501Z,0.40
2023-04-24T04:23:11.536Z,0.40
2023-04-24T04:25:38.575Z,0.30
2023-04-24T04:28:05.732Z,0.30
2023-04-24T04:30:33.464Z,0.38
2023-04-24T04:33:01.571Z,0.30
2023-04-24T04:35:29.203Z,0.35
2023-04-24T04:38:00.043Z,0.30
2023-04-24T04:40:31.948Z,0.20
2023-04-24T04:42:59.350Z,0.40
2023-04-24T04:45:28.194Z,0.40
2023-04-24T04:47:56.226Z,0.30
2023-04-24T04:50:24.098Z,0.40
2023-04-24T04:52:51.340Z,0.40
2023-04-24T04:55:19.497Z,0.50
2023-04-24T04:57:49.681Z,0.30
2023-04-24T05:00:17.299Z,0.40
2023-04-24T05:02:45.163Z,0.30
2023-04-24T05:05:12.383Z,0.40
2023-04-24T05:07:39.726Z,0.40
2023-04-24T05:10:08.370Z,0.30
2023-04-24T05:12:35.428Z,0.40
2023-04-24T05:15:02.988Z,0.30
2023-04-24T05:17:30.355Z,0.40
2023-04-24T05:19:57.683Z,0.30
2023-04-24T05:22:25.032Z,0.30
2023-04-24T05:24:52.556Z,0.38
2023-04-24T05:27:20.098Z,0.30
2023-04-24T05:29:47.294Z,0.30
2023-04-24T05:32:14.597Z,0.40
2023-04-24T05:34:41.639Z,0.30
2023-04-24T05:37:10.924Z,0.30
2023-04-24T05:39:42.155Z,0.30
2023-04-24T05:42:10.448Z,0.40
2023-04-24T05:44:37.537Z,0.30
2023-04-24T05:47:04.639Z,0.30
2023-04-24T05:49:34.534Z,0.30
2023-04-24T05:52:01.957Z,0.30
2023-04-24T05:54:29.069Z,0.43
2023-04-24T05:56:56.863Z,0.30
2023-04-24T05:59:29.337Z,0.38
2023-04-24T06:01:59.358Z,0.40
2023-04-24T06:04:30.838Z,0.30
2023-04-24T06:06:58.170Z,0.63
2023-04-24T06:09:28.292Z,0.40
2023-04-24T06:11:55.719Z,0.60
2023-04-24T06:14:22.637Z,0.93
2023-04-24T06:16:50.440Z,0.45
2023-04-24T06:19:17.660Z,0.40
2023-04-24T06:21:44.725Z,1.55
2023-04-24T06:24:12.979Z,1.63
2023-04-24T06:26:40.293Z,1.25
2023-04-24T06:29:08.432Z,0.40
2023-04-24T06:31:38.047Z,1.00
2023-04-24T06:34:05.650Z,0.40
2023-04-24T06:36:35.650Z,0.40
2023-04-24T06:39:03.316Z,0.40
2023-04-24T06:41:30.562Z,0.40
2023-04-24T06:44:01.432Z,4.75
2023-04-24T06:46:29.012Z,0.30
2023-04-24T06:48:59.279Z,0.93
2023-04-24T06:51:27.860Z,0.95
2023-04-24T06:53:57.473Z,0.50
2023-04-24T06:56:24.670Z,0.52
2023-04-24T06:58:52.708Z,3.15
2023-04-24T07:01:22.751Z,0.38
2023-04-24T07:03:50.096Z,1.80
2023-04-24T07:06:19.681Z,1.58
2023-04-24T07:08:47.770Z,0.40
2023-04-24T07:11:14.827Z,2.00
2023-04-24T07:13:43.338Z,0.50
2023-04-24T07:16:10.928Z,0.60
2023-04-24T07:18:38.489Z,1.85
2023-04-24T07:21:05.788Z,2.25
2023-04-24T07:23:32.997Z,0.52
2023-04-24T07:26:00.061Z,3.63
2023-04-24T07:28:27.259Z,2.60
2023-04-24T07:30:55.183Z,1.75
2023-04-24T07:33:22.978Z,4.05
2023-04-24T07:35:50.290Z,1.40
2023-04-24T07:38:17.918Z,3.67
2023-04-24T07:40:45.512Z,3.33
2023-04-24T07:43:14.095Z,1.92
2023-04-24T07:45:42.010Z,1.27
2023-04-24T07:48:09.994Z,2.28
2023-04-24T07:50:42.307Z,2.40
2023-04-24T07:53:09.399Z,2.67
2023-04-24T07:55:36.828Z,1.38
2023-04-24T07:58:03.888Z,2.80
2023-04-24T08:00:32.160Z,2.10
2023-04-24T08:02:59.565Z,2.88
2023-04-24T08:05:28.532Z,2.78
2023-04-24T08:07:56.887Z,2.38
2023-04-24T08:10:24.696Z,1.88
2023-04-24T08:12:52.601Z,2.70
2023-04-24T08:15:22.612Z,2.30
2023-04-24T08:17:51.596Z,5.60
2023-04-24T08:20:19.870Z,3.10
2023-04-24T08:22:48.295Z,3.03
2023-04-24T08:25:18.398Z,3.33
2023-04-24T08:27:45.380Z,3.78
2023-04-24T08:30:14.338Z,4.28
2023-04-24T08:32:41.626Z,4.05
2023-04-24T08:35:10.415Z,3.58
2023-04-24T08:37:38.026Z,3.13
2023-04-24T08:40:16.528Z,1.15
2023-04-24T08:42:47.611Z,3.70
2023-04-24T08:45:15.593Z,3.83
2023-04-24T08:47:43.603Z,3.08
2023-04-24T08:50:11.708Z,6.05
2023-04-24T08:52:38.709Z,6.00
2023-04-24T08:55:07.744Z,6.25
2023-04-24T08:57:37.167Z,4.40
2023-04-24T09:00:05.828Z,4.40
2023-04-24T09:02:35.455Z,3.22
2023-04-24T09:05:07.532Z,5.90
2023-04-24T09:07:37.500Z,3.05
2023-04-24T09:10:05.632Z,3.33
2023-04-24T09:12:36.512Z,3.47
2023-04-24T09:15:05.167Z,2.10
2023-04-24T09:17:34.171Z,3.80
2023-04-24T09:20:02.291Z,4.50
2023-04-24T09:22:32.139Z,5.15
2023-04-24T09:25:10.062Z,3.80
2023-04-24T09:27:37.547Z,2.90
2023-04-24T09:30:05.699Z,6.53
2023-04-24T09:32:36.302Z,3.45
2023-04-24T09:35:17.379Z,6.20
2023-04-24T09:37:49.880Z,1.25
2023-04-24T09:40:23.395Z,4.15
2023-04-24T09:43:02.495Z,7.43
2023-04-24T09:45:36.712Z,3.35
2023-04-24T09:48:04.308Z,4.22
2023-04-24T09:50:35.490Z,3.97
2023-04-24T09:53:11.900Z,2.25
2023-04-24T09:55:51.523Z,2.25
2023-04-24T09:58:18.837Z,4.80
2023-04-24T10:00:47.473Z,3.58
2023-04-24T10:03:19.230Z,3.10
2023-04-24T10:05:48.626Z,5.47
2023-04-24T10:08:15.894Z,4.97
2023-04-24T10:10:45.150Z,4.45
2023-04-24T10:13:15.910Z,3.55
2023-04-24T10:15:43.811Z,4.18
2023-04-24T10:18:15.257Z,3.05
2023-04-24T10:20:42.431Z,5.00
2023-04-24T10:23:11.652Z,5.15
2023-04-24T10:25:38.699Z,4.78
2023-04-24T10:28:08.396Z,5.88
2023-04-24T10:30:37.454Z,2.80
2023-04-24T10:33:09.644Z,1.67
2023-04-24T10:35:50.114Z,4.70
2023-04-24T10:38:26.923Z,3.58
2023-04-24T10:41:17.419Z,2.63
2023-04-24T10:43:45.433Z,5.43
2023-04-24T10:46:20.439Z,2.15
2023-04-24T10:48:55.964Z,3.78
2023-04-24T10:51:49.973Z,1.55
2023-04-24T10:54:26.058Z,3.80
2023-04-24T10:56:54.336Z,3.83
2023-04-24T10:59:38.869Z,3.30
2023-04-24T11:02:09.676Z,2.25
2023-04-24T11:04:37.415Z,2.95
2023-04-24T11:07:05.262Z,5.32
2023-04-24T11:09:34.070Z,3.35
2023-04-24T11:12:07.961Z,6.20
2023-04-24T11:14:57.651Z,4.47
2023-04-24T11:17:38.635Z,5.95
2023-04-24T11:20:26.818Z,8.10
2023-04-24T11:22:58.602Z,5.13
2023-04-24T11:25:28.234Z,5.50
2023-04-24T11:28:06.401Z,10.43
2023-04-24T11:30:37.555Z,8.02
2023-04-24T11:33:08.795Z,7.35
2023-04-24T11:35:41.926Z,6.95
2023-04-24T11:40:41.885Z,7.60
2023-04-24T11:43:13.684Z,9.50
2023-04-24T11:45:50.241Z,6.85
2023-04-24T11:48:23.746Z,8.15
2023-04-24T11:50:52.111Z,5.82
2023-04-24T11:53:24.089Z,8.63
2023-04-24T11:55:52.908Z,5.85
2023-04-24T11:58:23.745Z,8.68
2023-04-24T12:01:02.373Z,6.03
2023-04-24T12:03:29.698Z,10.38
2023-04-24T12:06:12.054Z,5.65
2023-04-24T12:08:39.910Z,7.05
2023-04-24T12:11:08.862Z,7.55
2023-04-24T12:13:37.450Z,7.20
2023-04-24T12:16:07.538Z,11.05
2023-04-24T12:18:45.061Z,6.72
2023-04-24T12:21:24.252Z,6.95
2023-04-24T12:23:52.034Z,4.80
2023-04-24T12:26:21.190Z,5.50
2023-04-24T12:28:51.013Z,6.93
2023-04-24T12:31:18.848Z,7.30
2023-04-24T12:33:46.024Z,6.05
2023-04-24T12:36:16.898Z,5.32
2023-04-24T12:38:54.060Z,5.05
2023-04-24T12:41:21.085Z,5.93
2023-04-24T12:43:55.960Z,4.28
2023-04-24T12:46:23.218Z,5.32
2023-04-24T12:48:50.949Z,5.53
2023-04-24T12:51:18.019Z,4.32
2023-04-24T12:53:48.157Z,5.57
2023-04-24T12:56:15.174Z,3.47
2023-04-24T12:58:42.127Z,2.70
2023-04-24T13:01:09.342Z,3.53
2023-04-24T13:03:37.247Z,2.63
2023-04-24T13:06:04.420Z,2.75
2023-04-24T13:08:31.487Z,2.95
2023-04-24T13:10:58.776Z,3.70
2023-04-24T13:13:25.836Z,4.53
2023-04-24T13:15:52.942Z,2.17
2023-04-24T13:18:20.419Z,2.20
2023-04-24T13:20:48.454Z,2.40
2023-04-24T13:23:16.765Z,3.38
2023-04-24T13:25:45.434Z,1.80
2023-04-24T13:28:14.258Z,2.50
2023-04-24T13:30:43.870Z,2.63
2023-04-24T13:33:11.372Z,1.92
2023-04-24T13:35:38.865Z,2.72
2023-04-24T13:38:07.717Z,1.83
2023-04-24T13:40:35.071Z,1.88
2023-04-24T13:43:02.784Z,2.38
2023-04-24T13:45:30.886Z,2.35
2023-04-24T13:47:58.392Z,2.35
2023-04-24T13:50:25.664Z,2.70
2023-04-24T13:52:55.428Z,1.77
2023-04-24T13:55:22.751Z,1.55
2023-04-24T13:57:50.605Z,3.85
2023-04-24T14:00:19.050Z,1.90
2023-04-24T14:02:49.538Z,1.33
2023-04-24T14:05:18.389Z,2.75
2023-04-24T14:07:46.346Z,2.40
2023-04-24T14:10:15.820Z,1.05
2023-04-24T14:12:45.004Z,1.15
2023-04-24T14:15:14.113Z,2.10
2023-04-24T14:17:43.465Z,2.80
2023-04-24T14:20:14.528Z,1.33
2023-04-24T14:22:41.946Z,1.23
2023-04-24T14:25:09.843Z,1.50
2023-04-24T14:27:37.094Z,0.98
2023-04-24T14:30:05.498Z,1.05
2023-04-24T14:32:32.559Z,1.40
2023-04-24T14:35:00.590Z,1.13
2023-04-24T14:37:27.724Z,1.52
2023-04-24T14:40:08.764Z,0.80
2023-04-24T14:42:38.690Z,1.30
2023-04-24T14:45:06.529Z,1.00
2023-04-24T14:47:37.729Z,1.25
2023-04-24T14:50:06.526Z,1.23
2023-04-24T14:52:33.716Z,1.63
2023-04-24T14:55:00.858Z,1.13
2023-04-24T14:57:28.065Z,0.73
2023-04-24T14:59:55.200Z,0.73
2023-04-24T15:02:22.558Z,0.85
2023-04-24T15:04:49.884Z,0.88
2023-04-24T15:07:16.988Z,0.50
2023-04-24T15:09:44.088Z,1.10
2023-04-24T15:12:13.948Z,2.38
2023-04-24T15:14:41.318Z,0.68
2023-04-24T15:17:08.724Z,0.60
2023-04-24T15:19:36.058Z,0.80
2023-04-24T15:22:03.888Z,1.17
2023-04-24T15:24:31.073Z,0.90
2023-04-24T15:27:00.602Z,0.55
2023-04-24T15:29:28.429Z,0.65
2023-04-24T15:31:55.793Z,0.98
2023-04-24T15:34:25.835Z,0.60
2023-04-24T15:36:52.998Z,0.50
2023-04-24T15:39:26.476Z,0.88
2023-04-24T15:41:57.735Z,0.50
2023-04-24T15:44:24.878Z,1.65
2023-04-24T15:46:52.500Z,1.65
2023-04-24T15:49:20.297Z,1.77
2023-04-24T15:51:47.451Z,1.00
2023-04-24T15:54:14.471Z,1.95
2023-04-24T15:56:41.652Z,0.52
2023-04-24T15:59:08.638Z,2.10
2023-04-24T16:01:36.071Z,0.50
2023-04-24T16:04:04.243Z,2.65
2023-04-24T16:06:32.221Z,1.33
2023-04-24T16:09:00.402Z,1.75
2023-04-24T16:11:29.005Z,0.70
2023-04-24T16:13:56.259Z,1.77
2023-04-24T16:16:24.610Z,0.70
2023-04-24T16:18:54.091Z,0.93
2023-04-24T16:21:21.744Z,0.90
2023-04-24T16:23:48.764Z,1.73
2023-04-24T16:26:18.411Z,1.35
2023-04-24T16:28:45.817Z,2.15
2023-04-24T16:31:13.158Z,0.82
2023-04-24T16:33:40.845Z,1.67
2023-04-24T16:36:09.078Z,1.45
2023-04-24T16:38:36.736Z,1.95
2023-04-24T16:41:04.272Z,2.63
2023-04-24T16:43:31.842Z,2.47
2023-04-24T16:46:00.691Z,2.35
2023-04-24T16:48:27.975Z,0.57
2023-04-24T16:50:55.794Z,0.98
2023-04-24T16:53:23.218Z,0.80
2023-04-24T16:55:51.970Z,0.45
2023-04-24T16:58:19.637Z,1.50
2023-04-24T17:00:50.963Z,2.30
2023-04-24T17:03:18.293Z,1.58
2023-04-24T17:05:46.307Z,1.15
2023-04-24T17:08:14.490Z,1.27
2023-04-24T17:10:41.687Z,0.98
2023-04-24T17:13:09.795Z,0.63
2023-04-24T17:15:37.000Z,2.15
2023-04-24T17:18:05.688Z,0.80
2023-04-24T17:20:32.781Z,0.70
2023-04-24T17:23:02.773Z,1.27
2023-04-24T17:25:30.265Z,1.38
2023-04-24T17:28:01.909Z,0.65
2023-04-24T17:30:28.985Z,0.50
2023-04-24T17:32:56.185Z,0.60
2023-04-24T17:35:23.395Z,0.32
2023-04-24T17:37:50.510Z,0.52
2023-04-24T17:40:18.279Z,0.90
2023-04-24T17:42:45.254Z,0.50
2023-04-24T17:45:12.536Z,0.75
2023-04-24T17:47:39.578Z,0.40
2023-04-24T17:50:07.613Z,0.50
2023-04-24T17:52:35.233Z,0.63
2023-04-24T17:55:02.255Z,1.30
2023-04-24T17:57:29.508Z,1.50
2023-04-24T17:59:57.355Z,0.40
2023-04-24T18:02:24.599Z,1.00
2023-04-24T18:04:53.801Z,0.40
2023-04-24T18:07:22.584Z,0.43
2023-04-24T18:09:52.573Z,0.32
2023-04-24T18:12:21.644Z,0.45
2023-04-24T18:14:50.351Z,0.38
2023-04-24T18:17:17.518Z,0.40
2023-04-24T18:19:44.693Z,0.38
2023-04-24T18:22:11.814Z,0.40
2023-04-24T18:24:41.673Z,0.40
2023-04-24T18:27:08.885Z,0.38
2023-04-24T18:29:35.932Z,0.40
2023-04-24T18:32:04.899Z,0.40
2023-04-24T18:34:32.036Z,0.40
2023-04-24T18:36:59.956Z,0.20
2023-04-24T18:39:27.312Z,0.55
2023-04-24T18:41:54.752Z,0.40
2023-04-24T18:44:21.976Z,0.32
2023-04-24T18:46:49.205Z,0.65
2023-04-24T18:49:16.183Z,0.50
2023-04-24T18:51:53.097Z,0.40
2023-04-24T18:54:24.058Z,0.40
2023-04-24T18:56:51.816Z,0.40
2023-04-24T18:59:19.949Z,0.40
2023-04-24T19:01:47.702Z,0.40
2023-04-24T19:04:15.977Z,0.32
2023-04-24T19:06:43.045Z,0.30
2023-04-24T19:09:10.052Z,0.38
2023-04-24T19:11:37.646Z,0.50
2023-04-24T19:14:05.772Z,0.30
2023-04-24T19:16:32.772Z,0.50
2023-04-24T19:19:00.853Z,0.40
2023-04-24T19:21:28.666Z,0.30
2023-04-24T19:23:57.057Z,0.95
2023-04-24T19:26:24.122Z,0.40
2023-04-24T19:28:53.716Z,0.38
2023-04-24T19:31:21.601Z,0.30
2023-04-24T19:33:48.787Z,0.40
2023-04-24T19:36:17.905Z,0.40
2023-04-24T19:38:45.904Z,0.30
2023-04-24T19:41:13.399Z,0.30
2023-04-24T19:43:40.640Z,0.40
2023-04-24T19:46:07.855Z,0.30
2023-04-24T19:48:34.995Z,0.65
2023-04-24T19:51:03.221Z,0.30
2023-04-24T19:53:30.605Z,0.40
2023-04-24T19:55:57.757Z,0.40
2023-04-24T19:58:33.465Z,0.60
2023-04-24T20:01:01.153Z,0.52
2023-04-24T20:03:33.577Z,0.35
2023-04-24T20:06:01.098Z,1.20
2023-04-24T20:08:28.161Z,0.40
2023-04-24T20:10:58.214Z,0.30
2023-04-24T20:13:31.900Z,0.40
2023-04-24T20:15:59.282Z,0.20
2023-04-24T20:18:26.279Z,0.40
2023-04-24T20:20:59.688Z,0.40
2023-04-24T20:23:27.461Z,0.30
2023-04-24T20:25:58.513Z,0.40
2023-04-24T20:28:27.205Z,0.80
2023-04-24T20:30:54.839Z,0.30
2023-04-24T20:33:22.418Z,0.50
2023-04-24T20:35:49.937Z,0.55
2023-04-24T20:38:18.898Z,0.43
2023-04-24T20:40:57.344Z,0.30
2023-04-24T20:43:29.528Z,0.40
2023-04-24T20:45:58.211Z,0.30
2023-04-24T20:48:26.830Z,0.40
2023-04-24T20:50:57.170Z,0.40
2023-04-24T20:53:24.600Z,0.30
2023-04-24T20:55:51.919Z,0.38
2023-04-24T20:58:21.015Z,0.30
2023-04-24T21:00:48.766Z,0.30
2023-04-24T21:03:16.020Z,0.20
2023-04-24T21:05:43.197Z,0.30
2023-04-24T21:08:10.267Z,0.40
2023-04-24T21:10:37.151Z,0.57
2023-04-24T21:13:04.214Z,0.57
2023-04-24T21:15:32.743Z,0.30
2023-04-24T21:17:59.841Z,0.40
2023-04-24T21:20:26.953Z,0.38
2023-04-24T21:22:54.013Z,0.30
2023-04-24T21:25:20.865Z,0.38
2023-04-24T21:27:48.232Z,0.40
2023-04-24T21:30:18.974Z,0.30
2023-04-24T21:32:46.125Z,0.40
2023-04-24T21:35:13.402Z,0.28
2023-04-24T21:37:40.483Z,0.30
2023-04-24T21:40:11.332Z,0.75
2023-04-24T21:42:39.624Z,0.68
2023-04-24T21:45:07.621Z,0.30
2023-04-24T21:47:35.338Z,0.50
2023-04-24T21:50:02.760Z,0.47
2023-04-24T21:52:29.807Z,0.40
2023-04-24T21:54:56.875Z,0.40
2023-04-24T21:57:24.028Z,0.40
2023-04-24T21:59:51.778Z,0.40
2023-04-24T22:02:18.837Z,0.50
2023-04-24T22:04:46.007Z,0.40
2023-04-24T22:07:13.143Z,0.40
2023-04-24T22:09:40.095Z,0.43
2023-04-24T22:12:07.192Z,0.43
2023-04-24T22:14:34.231Z,0.40
2023-04-24T22:17:01.167Z,0.70
2023-04-24T22:19:28.369Z,0.55
2023-04-24T22:21:55.879Z,0.30
2023-04-24T22:24:22.970Z,0.40
2023-04-24T22:26:50.017Z,0.35
2023-04-24T22:29:17.229Z,0.40
2023-04-24T22:31:45.464Z,0.40
2023-04-24T22:34:12.449Z,0.40
2023-04-24T22:36:39.640Z,0.38
2023-04-24T22:39:07.415Z,0.40
2023-04-24T22:41:34.734Z,0.30
2023-04-24T22:44:05.025Z,0.50
2023-04-24T22:46:32.297Z,0.30
2023-04-24T22:48:59.252Z,0.60
2023-04-24T22:51:26.348Z,0.30
2023-04-24T22:53:55.351Z,0.47
2023-04-24T22:56:22.351Z,0.40
2023-04-24T22:58:55.283Z,0.50
2023-04-24T23:01:22.515Z,0.40
2023-04-24T23:03:49.929Z,0.38
2023-04-24T23:06:17.552Z,0.50
2023-04-24T23:08:46.736Z,0.75
2023-04-24T23:11:13.806Z,0.40
2023-04-24T23:13:40.884Z,0.40
2023-04-24T23:16:07.950Z,0.40
2023-04-24T23:18:34.994Z,0.40
2023-04-24T23:21:03.300Z,0.40
2023-04-24T23:23:30.373Z,0.40
2023-04-24T23:25:57.777Z,0.43
2023-04-24T23:28:24.861Z,0.40
2023-04-24T23:30:51.732Z,0.60
2023-04-24T23:33:18.645Z,0.50
2023-04-24T23:35:47.974Z,0.38
2023-04-24T23:38:14.998Z,0.45
2023-04-24T23:40:42.286Z,1.00
2023-04-24T23:43:09.322Z,0.30
2023-04-24T23:45:36.909Z,0.30
2023-04-24T23:48:04.675Z,0.40
2023-04-24T23:50:31.763Z,0.43
2023-04-24T23:52:59.253Z,0.38
2023-04-24T23:55:26.326Z,0.50
2023-04-24T23:57:53.803Z,0.40
